Time;durP1;ratioP1;P1;durP2;ratioP2;P2;SDS_P1;SDS_P2;PMS_P1;PMS_P2;Temp;Humidity;BMP_temperature;BMP_pressure;BME280_temperature;BME280_humidity;BME280_pressure;Samples;Min_cycle;Max_cycle;Signal;HPM_P1;HPM_P2
2022/06/13 00:01:58;;;;;;;;;;;;;;;18.28;80.91;99504.66;1712691;83;20347;-80
2022/06/13 00:05:03;;;;;;;;;;;;;;;18.27;80.73;99517.66;1715819;83;20241;-80
2022/06/13 00:08:08;;;;;;;;;;;;;;;18.26;80.77;99509.61;1713967;83;20667;-80
2022/06/13 00:11:15;;;;;;;;;;;;;;;18.25;80.96;99511.52;1714364;83;20682;-81
2022/06/13 00:14:13;;;;;;;;;;;;;;;18.25;80.98;99512.06;1715698;83;20297;-80
2022/06/13 00:17:17;;;;;;;;;;;;;;;18.23;81.09;99508.71;1714339;83;20674;-80
2022/06/13 00:20:21;;;;;;;;;;;;;;;18.22;81.33;99500.12;1714748;83;20306;-81
2022/06/13 00:23:28;;;;;;;;;;;;;;;18.19;81.46;99497.28;1714486;83;20635;-81
2022/06/13 00:26:34;;;;;;;;;;;;;;;18.16;81.78;99501.08;1714669;83;20202;-80
2022/06/13 00:29:49;;;;;;;;;;;;;;;18.12;82.15;99487.75;1716268;83;20607;-80
2022/06/13 00:32:48;;;;;;;;;;;;;;;18.10;82.33;99491.29;1716186;83;20611;-80
2022/06/13 00:35:55;;;;;;;;;;;;;;;18.08;82.65;99493.47;1716232;83;20639;-80
2022/06/13 00:39:00;;;;;;;;;;;;;;;18.04;82.88;99492.28;1716230;83;20225;-80
2022/06/13 00:42:04;;;;;;;;;;;;;;;18.02;82.98;99491.70;1716109;83;20213;-80
2022/06/13 00:45:30;;;;;;;;;;;;;;;17.98;83.21;99487.73;1716094;83;20312;-81
2022/06/13 00:48:35;;;;;;;;;;;;;;;17.95;83.42;99493.74;1714831;83;20603;-80
2022/06/13 00:51:42;;;;;;;;;;;;;;;17.96;83.67;99492.66;1716106;83;20214;-80
2022/06/13 00:54:47;;;;;;;;;;;;;;;17.97;83.63;99499.86;1716551;83;20198;-80
2022/06/13 00:57:52;;;;;;;;;;;;;;;17.96;83.47;99498.73;1715091;83;20644;-80
2022/06/13 01:00:59;;;;;;;;;;;;;;;17.92;83.39;99498.37;1722722;83;20237;-80
2022/06/13 01:04:05;;;;;;;;;;;;;;;17.92;83.57;99498.37;1737226;82;20229;-80
2022/06/13 01:07:11;;;;;;;;;;;;;;;17.91;83.54;99498.08;1735961;82;20241;-80
2022/06/13 01:13:43;;;;;;;;;;;;;;;17.91;83.40;99503.61;1737507;82;20718;-80
2022/06/13 01:17:04;;;;;;;;;;;;;;;17.89;83.47;99501.64;1737488;82;20256;-80
2022/06/13 01:20:25;;;;;;;;;;;;;;;17.85;83.56;99512.34;1736580;82;20631;-80
2022/06/13 01:23:50;;;;;;;;;;;;;;;17.81;83.68;99513.08;1737482;82;20213;-80
2022/06/13 01:27:01;;;;;;;;;;;;;;;17.74;83.89;99515.15;1737325;82;20244;-80
2022/06/13 01:30:34;;;;;;;;;;;;;;;17.69;84.25;99524.65;1737140;82;20221;-80
2022/06/13 01:34:11;;;;;;;;;;;;;;;17.66;84.48;99521.00;1737243;82;20209;-80
2022/06/13 01:37:24;;;;;;;;;;;;;;;17.62;84.67;99517.33;1736117;82;20702;-80
2022/06/13 01:40:48;;;;;;;;;;;;;;;17.60;84.83;99513.14;1736688;82;20292;-81
2022/06/13 01:43:57;;;;;;;;;;;;;;;17.57;85.03;99510.84;1737420;82;20651;-81
2022/06/13 01:47:32;;;;;;;;;;;;;;;17.54;85.36;99518.23;1737700;82;20217;-81
2022/06/13 01:50:51;;;;;;;;;;;;;;;17.50;85.74;99512.37;1737507;82;20607;-81
2022/06/13 01:54:11;;;;;;;;;;;;;;;17.48;86.43;99511.75;1737590;82;20209;-81
2022/06/13 01:57:39;;;;;;;;;;;;;;;17.46;87.00;99512.55;1736053;82;20390;-80
2022/06/13 02:00:44;;;;;;;;;;;;;;;17.43;87.53;99522.69;1737644;82;20642;-80
2022/06/13 02:03:54;;;;;;;;;;;;;;;17.38;88.00;99523.41;1737624;82;20396;-80
2022/06/13 02:07:02;;;;;;;;;;;;;;;17.36;88.38;99531.11;1735919;82;20237;-80
2022/06/13 02:10:10;;;;;;;;;;;;;;;17.35;88.64;99529.41;1737098;82;20213;-80
2022/06/13 02:13:13;;;;;;;;;;;;;;;17.34;88.96;99531.88;1737837;82;20221;-80
2022/06/13 02:16:22;;;;;;;;;;;;;;;17.39;89.30;99528.39;1737590;82;20372;-81
2022/06/13 02:19:39;;;;;;;;;;;;;;;17.44;89.43;99531.27;1736369;82;21109;-80
2022/06/13 02:22:51;;;;;;;;;;;;;;;17.54;89.51;99531.52;1735955;82;20683;-81
2022/06/13 02:26:13;;;;;;;;;;;;;;;17.67;89.25;99533.20;1736174;82;21060;-80
2022/06/13 02:29:28;;;;;;;;;;;;;;;17.85;88.95;99532.26;1736045;82;20264;-81
2022/06/13 02:32:38;;;;;;;;;;;;;;;18.30;88.23;99526.88;1736087;82;20233;-80
2022/06/13 02:35:51;;;;;;;;;;;;;;;18.86;86.03;99529.88;1735727;82;20216;-80
2022/06/13 02:39:03;;;;;;;;;;;;;;;19.44;83.45;99537.54;1736080;82;20229;-80
2022/06/13 02:42:10;;;;;;;;;;;;;;;19.99;80.29;99538.08;1737629;82;20214;-80
2022/06/13 02:45:19;;;;;;;;;;;;;;;20.44;77.46;99539.23;1737514;82;20222;-81
2022/06/13 02:48:28;;;;;;;;;;;;;;;20.91;75.29;99544.22;1737275;82;20217;-80
2022/06/13 02:51:48;;;;;;;;;;;;;;;21.38;73.20;99551.36;1737656;82;20214;-80
2022/06/13 02:54:42;;;;;;;;;;;;;;;21.84;70.70;99552.25;1736709;82;20218;-80
2022/06/13 02:57:37;;;;;;;;;;;;;;;22.16;68.90;99543.28;1737620;82;20245;-81
2022/06/13 03:00:37;;;;;;;;;;;;;;;22.47;67.36;99546.74;1737545;82;20218;-80
2022/06/13 03:03:45;;;;;;;;;;;;;;;22.63;66.16;99535.39;1730740;82;20216;-81
2022/06/13 03:07:22;;;;;;;;;;;;;;;22.83;65.20;99539.33;1729618;83;20694;-80
2022/06/13 03:10:29;;;;;;;;;;;;;;;23.00;63.84;99542.72;1728357;83;20201;-81
2022/06/13 03:13:50;;;;;;;;;;;;;;;23.01;63.33;99537.45;1728303;83;20651;-80
2022/06/13 03:17:08;;;;;;;;;;;;;;;23.04;63.22;99540.22;1729888;83;20241;-80
2022/06/13 03:20:32;;;;;;;;;;;;;;;23.01;62.89;99547.21;1728205;82;20240;-80
2022/06/13 03:23:41;;;;;;;;;;;;;;;23.01;63.09;99548.61;1717376;83;20221;-80
2022/06/13 03:26:49;;;;;;;;;;;;;;;23.06;62.37;99545.82;1729800;83;20654;-80
2022/06/13 03:30:00;;;;;;;;;;;;;;;22.99;62.40;99553.60;1728176;83;20245;-80
2022/06/13 03:36:40;;;;;;;;;;;;;;;23.12;61.32;99567.02;1729748;83;20642;-80
2022/06/13 03:39:48;;;;;;;;;;;;;;;23.10;61.16;99565.08;1728687;83;20611;-81
2022/06/13 03:43:05;;;;;;;;;;;;;;;23.25;61.07;99573.18;1729779;83;20228;-81
2022/06/13 03:46:16;;;;;;;;;;;;;;;23.41;60.74;99576.24;1728382;83;20233;-81
2022/06/13 03:49:33;;;;;;;;;;;;;;;23.60;59.54;99578.75;1729094;83;20319;-81
2022/06/13 03:52:38;;;;;;;;;;;;;;;23.71;58.96;99585.19;1729785;83;20212;-81
2022/06/13 03:56:00;;;;;;;;;;;;;;;23.66;58.86;99579.05;1730073;83;20631;-81
2022/06/13 03:59:14;;;;;;;;;;;;;;;23.61;58.65;99581.81;1721745;83;20217;-81
2022/06/13 04:02:20;;;;;;;;;;;;;;;23.61;59.32;99581.81;1729757;83;20658;-81
2022/06/13 04:05:35;;;;;;;;;;;;;;;23.74;59.29;99583.80;1718795;83;20217;-81
2022/06/13 04:08:41;;;;;;;;;;;;;;;23.82;59.02;99587.44;1648468;86;20647;-81
2022/06/13 04:11:58;;;;;;;;;;;;;;;23.95;58.82;99591.05;1691845;85;20293;-80
2022/06/13 04:15:24;;;;;;;;;;;;;;;24.03;58.44;99591.85;1691893;85;20294;-81
2022/06/13 04:18:55;;;;;;;;;;;;;;;24.04;57.76;99588.49;1693490;85;21208;-81
2022/06/13 04:22:06;;;;;;;;;;;;;;;23.97;57.97;99591.59;1694144;85;20206;-81
2022/06/13 04:25:17;;;;;;;;;;;;;;;23.92;58.58;99591.60;1692000;85;20229;-81
2022/06/13 04:28:25;;;;;;;;;;;;;;;23.97;57.85;99595.78;1693670;85;20217;-80
2022/06/13 04:31:31;;;;;;;;;;;;;;;23.99;57.82;99594.92;1692194;85;20238;-80
2022/06/13 04:34:39;;;;;;;;;;;;;;;24.03;58.38;99592.41;1693969;85;20217;-80
2022/06/13 04:37:45;;;;;;;;;;;;;;;24.10;57.83;99591.58;1692982;85;20237;-80
2022/06/13 04:40:56;;;;;;;;;;;;;;;24.12;57.25;99606.92;1691897;85;20675;-80
2022/06/13 04:44:02;;;;;;;;;;;;;;;24.20;57.55;99608.31;1693115;85;20237;-80
2022/06/13 04:47:07;;;;;;;;;;;;;;;24.35;56.82;99606.03;1693167;85;20292;-80
2022/06/13 04:50:13;;;;;;;;;;;;;;;24.46;56.39;99596.51;1692612;85;20672;-80
2022/06/13 04:53:30;;;;;;;;;;;;;;;24.55;55.92;99601.78;1693441;85;20209;-81
2022/06/13 04:56:35;;;;;;;;;;;;;;;24.58;55.51;99602.63;1693221;85;20217;-81
2022/06/13 04:59:40;;;;;;;;;;;;;;;24.58;55.73;99601.79;1691793;85;20221;-81
2022/06/13 05:02:53;;;;;;;;;;;;;;;24.56;55.80;99605.41;1693335;85;20635;-81
2022/06/13 05:06:01;;;;;;;;;;;;;;;24.59;55.76;99604.29;1727021;82;20245;-81
2022/06/13 05:09:10;;;;;;;;;;;;;;;24.65;55.77;99614.32;1717112;83;20198;-81
2022/06/13 05:12:35;;;;;;;;;;;;;;;24.71;55.62;99607.60;1716273;83;21252;-80
2022/06/13 05:15:40;;;;;;;;;;;;;;;24.83;55.41;99613.41;1715068;83;20695;-80
2022/06/13 05:18:49;;;;;;;;;;;;;;;24.95;55.23;99613.35;1715505;83;20242;-81
2022/06/13 05:22:21;;;;;;;;;;;;;;;25.07;54.25;99606.03;1715394;83;20230;-80
2022/06/13 05:25:46;;;;;;;;;;;;;;;25.05;54.70;99604.06;1713913;83;20686;-80
2022/06/13 05:28:50;;;;;;;;;;;;;;;25.01;54.71;99601.56;1716140;83;20283;-80
2022/06/13 05:31:55;;;;;;;;;;;;;;;25.02;54.82;99605.20;1714983;83;21168;-80
2022/06/13 05:35:01;;;;;;;;;;;;;;;25.06;54.89;99605.73;1716028;83;20213;-80
2022/06/13 05:38:07;;;;;;;;;;;;;;;25.11;54.84;99602.93;1716161;83;20303;-80
2022/06/13 05:41:11;;;;;;;;;;;;;;;25.17;55.08;99601.80;1715312;83;20341;-80
2022/06/13 05:44:16;;;;;;;;;;;;;;;25.26;54.66;99597.79;1716028;83;20250;-80
2022/06/13 05:47:25;;;;;;;;;;;;;;;25.37;54.78;99598.58;1714170;83;20659;-80
2022/06/13 05:50:33;;;;;;;;;;;;;;;25.44;53.83;99599.06;1716381;83;20206;-80
2022/06/13 05:53:37;;;;;;;;;;;;;;;25.46;53.65;99599.06;1715717;83;20234;-80
2022/06/13 05:56:42;;;;;;;;;;;;;;;25.49;53.52;99596.23;1715690;83;20229;-80
2022/06/13 05:59:48;;;;;;;;;;;;;;;25.58;53.38;99595.88;1738811;81;20247;-80
2022/06/13 06:02:53;;;;;;;;;;;;;;;25.76;53.03;99593.52;1764203;81;20235;-81
2022/06/13 06:05:59;;;;;;;;;;;;;;;25.86;52.97;99597.06;1763572;81;20766;-81
2022/06/13 06:09:05;;;;;;;;;;;;;;;25.99;52.30;99595.54;1724582;82;20248;-81
2022/06/13 06:12:11;;;;;;;;;;;;;;;26.03;52.04;99603.63;1738822;81;20507;-81
2022/06/13 06:15:19;;;;;;;;;;;;;;;26.03;51.80;99603.63;1742212;81;20332;-80
2022/06/13 06:18:24;;;;;;;;;;;;;;;26.09;51.95;99597.40;1737707;81;20241;-81
2022/06/13 06:21:28;;;;;;;;;;;;;;;26.15;51.77;99599.84;1734517;82;20225;-81
2022/06/13 06:24:26;;;;;;;;;;;;;;;26.24;51.08;99598.06;1732872;82;20248;-81
2022/06/13 06:27:30;;;;;;;;;;;;;;;26.36;50.63;99602.44;1735499;82;20259;-81
2022/06/13 06:30:37;;;;;;;;;;;;;;;26.47;50.92;99600.64;1738166;81;20217;-81
2022/06/13 06:33:42;;;;;;;;;;;;;;;26.63;49.94;99600.44;1756040;81;20219;-81
2022/06/13 06:36:47;;;;;;;;;;;;;;;26.76;50.11;99599.14;1700158;83;20226;-81
2022/06/13 06:39:51;;;;;;;;;;;;;;;26.87;48.79;99596.23;1740760;81;20242;-81
2022/06/13 06:42:56;;;;;;;;;;;;;;;26.93;48.23;99590.23;1712451;82;20666;-81
2022/06/13 06:46:04;;;;;;;;;;;;;;;26.97;48.67;99590.47;1723056;82;20244;-81
2022/06/13 06:49:07;;;;;;;;;;;;;;;27.04;49.51;99590.91;1695973;82;20214;-81
2022/06/13 06:52:12;;;;;;;;;;;;;;;27.14;49.21;99590.80;1733165;82;20229;-81
2022/06/13 07:02:07;;;;;;;;;;;;;;;27.58;48.15;99595.18;1733974;81;20780;-81
2022/06/13 07:05:13;;;;;;;;;;;;;;;27.68;47.45;99596.41;1734756;82;20203;-81
2022/06/13 07:08:19;;;;;;;;;;;;;;;27.73;47.45;99599.16;1706023;84;20207;-80
2022/06/13 07:14:51;;;;;;;;;;;;;;;27.85;46.95;99603.44;1723521;81;20198;-80
2022/06/13 07:17:55;;;;;;;;;;;;;;;27.97;46.83;99598.18;1720272;82;20209;-80
2022/06/13 07:21:00;;;;;;;;;;;;;;;28.09;45.88;99594.86;1732536;82;20209;-80
2022/06/13 07:24:05;;;;;;;;;;;;;;;28.14;45.32;99599.01;1713018;82;20408;-80
2022/06/13 07:27:11;;;;;;;;;;;;;;;28.18;44.54;99603.70;1713118;84;20231;-80
2022/06/13 07:30:16;;;;;;;;;;;;;;;28.14;44.53;99604.05;1720586;82;20661;-80
2022/06/13 07:33:21;;;;;;;;;;;;;;;28.07;44.66;99595.17;1743407;82;20588;-80
2022/06/13 07:36:25;;;;;;;;;;;;;;;28.14;45.05;99604.05;1742866;82;20229;-80
2022/06/13 07:39:31;;;;;;;;;;;;;;;28.23;43.99;99599.38;1740914;82;20203;-80
2022/06/13 07:42:40;;;;;;;;;;;;;;;28.27;43.95;99596.19;1721682;82;20201;-81
2022/06/13 07:45:47;;;;;;;;;;;;;;;28.37;43.79;99592.94;1747564;81;20227;-81
2022/06/13 07:48:53;;;;;;;;;;;;;;;28.50;44.04;99597.16;1734977;82;20221;-80
2022/06/13 07:51:51;;;;;;;;;;;;;;;28.62;44.39;99593.84;1743067;82;20211;-81
2022/06/13 07:54:56;;;;;;;;;;;;;;;28.69;44.22;99590.59;1730819;82;20202;-81
2022/06/13 07:58:00;;;;;;;;;;;;;;;28.82;43.18;99595.96;1725641;83;20346;-80
2022/06/13 08:01:06;;;;;;;;;;;;;;;28.84;43.11;99599.28;1738861;81;20229;-80
2022/06/13 08:04:11;;;;;;;;;;;;;;;28.85;43.40;99588.31;1744197;82;20694;-81
2022/06/13 08:07:19;;;;;;;;;;;;;;;28.91;43.29;99594.08;1745335;82;20237;-80
2022/06/13 08:10:25;;;;;;;;;;;;;;;28.95;43.15;99598.79;1745200;81;20226;-81
2022/06/13 08:13:29;;;;;;;;;;;;;;;28.98;42.89;99596.77;1759236;81;20269;-80
2022/06/13 08:16:34;;;;;;;;;;;;;;;29.03;42.89;99602.85;1753059;81;20262;-80
2022/06/13 08:19:39;;;;;;;;;;;;;;;29.04;42.28;99597.47;1756903;81;20230;-80
2022/06/13 08:22:53;;;;;;;;;;;;;;;28.99;42.91;99597.02;1745511;81;20622;-80
2022/06/13 08:25:56;;;;;;;;;;;;;;;28.98;41.31;99605.20;1745431;82;20215;-80
2022/06/13 08:29:01;;;;;;;;;;;;;;;28.99;41.66;99605.45;1742194;82;20370;-80
2022/06/13 08:32:07;;;;;;;;;;;;;;;28.98;41.37;99595.35;1740395;82;20213;-80
2022/06/13 08:35:14;;;;;;;;;;;;;;;28.94;41.93;99607.53;1742098;82;21109;-80
2022/06/13 08:38:21;;;;;;;;;;;;;;;29.00;41.51;99595.03;1733140;81;20240;-80
2022/06/13 08:41:38;;;;;;;;;;;;;;;29.04;41.79;99605.92;1741059;81;20213;-80
2022/06/13 08:44:54;;;;;;;;;;;;;;;28.99;41.99;99601.23;1739723;82;20229;-80
2022/06/13 08:48:13;;;;;;;;;;;;;;;29.01;41.86;99590.48;1742459;81;20253;-80
2022/06/13 08:51:20;;;;;;;;;;;;;;;29.07;41.84;99610.90;1772584;81;20597;-79
2022/06/13 08:54:32;;;;;;;;;;;;;;;29.06;41.35;99599.96;1744452;81;20391;-79
2022/06/13 08:57:36;;;;;;;;;;;;;;;29.00;40.98;99598.67;1741801;82;20241;-80
2022/06/13 09:00:41;;;;;;;;;;;;;;;28.98;41.34;99590.27;1758996;81;20666;-80
2022/06/13 09:04:06;;;;;;;;;;;;;;;29.02;40.37;99588.49;1746166;81;20234;-79
2022/06/13 09:07:16;;;;;;;;;;;;;;;29.02;41.29;99585.67;1741156;81;20233;-80
2022/06/13 09:10:23;;;;;;;;;;;;;;;29.07;39.20;99592.59;1743607;82;20233;-80
2022/06/13 09:13:34;;;;;;;;;;;;;;;29.05;40.97;99587.05;1757754;80;20725;-80
2022/06/13 09:16:41;;;;;;;;;;;;;;;28.99;41.51;99575.90;1747861;82;20224;-80
2022/06/13 09:19:45;;;;;;;;;;;;;;;28.96;40.42;99582.73;1748823;82;20232;-80
2022/06/13 09:23:06;;;;;;;;;;;;;;;28.87;41.40;99580.37;1756993;80;20259;-80
2022/06/13 09:26:14;;;;;;;;;;;;;;;28.86;41.25;99580.95;1750475;80;20285;-80
2022/06/13 09:29:31;;;;;;;;;;;;;;;28.95;40.15;99583.89;1749829;80;20230;-80
2022/06/13 09:32:40;;;;;;;;;;;;;;;28.95;39.83;99582.48;1749384;80;20619;-80
2022/06/13 09:35:48;;;;;;;;;;;;;;;28.88;40.09;99578.64;1748466;81;20626;-80
2022/06/13 09:39:00;;;;;;;;;;;;;;;28.94;40.51;99588.66;1750075;82;20217;-80
2022/06/13 09:42:23;;;;;;;;;;;;;;;29.09;40.32;99592.30;1750414;82;20235;-80
2022/06/13 09:45:40;;;;;;;;;;;;;;;29.19;39.73;99594.88;1751184;80;20230;-80
2022/06/13 09:48:54;;;;;;;;;;;;;;;29.22;39.92;99590.86;1748833;82;20217;-80
2022/06/13 09:52:08;;;;;;;;;;;;;;;29.32;40.08;99586.97;1760297;80;20639;-81
2022/06/13 09:55:31;;;;;;;;;;;;;;;29.45;39.53;99590.86;1769876;80;20202;-80
2022/06/13 09:58:40;;;;;;;;;;;;;;;29.44;40.08;99593.42;1740972;82;20587;-81
2022/06/13 10:01:48;;;;;;;;;;;;;;;29.32;40.22;99588.95;1749765;82;20208;-81
2022/06/13 10:05:14;;;;;;;;;;;;;;;29.24;40.29;99588.55;1722366;82;20213;-81
2022/06/13 10:08:21;;;;;;;;;;;;;;;29.23;40.88;99591.11;1750109;82;20706;-81
2022/06/13 10:11:52;;;;;;;;;;;;;;;29.26;39.97;99574.13;1707010;83;20220;-80
2022/06/13 10:15:01;;;;;;;;;;;;;;;29.34;40.12;99586.64;1704181;84;20212;-80
2022/06/13 10:18:18;;;;;;;;;;;;;;;29.44;39.79;99586.38;1693275;84;20228;-78
2022/06/13 10:21:44;;;;;;;;;;;;;;;29.47;39.03;99589.98;1715462;82;20228;-80
2022/06/13 10:25:08;;;;;;;;;;;;;;;29.42;38.94;99579.67;1710728;82;20649;-79
2022/06/13 10:28:22;;;;;;;;;;;;;;;29.44;40.17;99580.17;1719803;82;20229;-79
2022/06/13 10:31:40;;;;;;;;;;;;;;;29.56;40.11;99577.41;1694013;83;20769;-80
2022/06/13 10:35:11;;;;;;;;;;;;;;;29.65;39.03;99570.68;1720734;82;20215;-80
2022/06/13 10:38:44;;;;;;;;;;;;;;;29.60;39.14;99570.81;1728355;82;20259;-80
2022/06/13 10:41:52;;;;;;;;;;;;;;;29.54;38.93;99577.67;1725596;82;20221;-80
2022/06/13 10:44:57;;;;;;;;;;;;;;;29.58;38.37;99575.09;1718504;82;20619;-80
2022/06/13 10:48:11;;;;;;;;;;;;;;;29.67;38.53;99566.13;1724733;82;20215;-80
2022/06/13 10:51:15;;;;;;;;;;;;;;;29.81;37.28;99567.45;1728223;82;20230;-80
2022/06/13 10:54:27;;;;;;;;;;;;;;;29.94;37.38;99560.33;1719858;82;20217;-80
2022/06/13 10:57:38;;;;;;;;;;;;;;;30.11;37.53;99560.98;1715842;82;20250;-80
2022/06/13 11:00:42;;;;;;;;;;;;;;;30.09;37.85;99563.30;1722682;82;20221;-80
2022/06/13 11:04:14;;;;;;;;;;;;;;;29.85;37.88;99568.48;1721792;82;20219;-80
2022/06/13 11:07:24;;;;;;;;;;;;;;;29.72;37.80;99553.30;1731292;82;20221;-80
2022/06/13 11:10:42;;;;;;;;;;;;;;;29.83;38.16;99552.45;1715714;83;20215;-80
2022/06/13 11:13:48;;;;;;;;;;;;;;;30.07;37.89;99554.35;1719709;82;20198;-80
2022/06/13 11:23:47;;;;;;;;;;;;;;;30.24;37.45;99540.92;1730671;82;20654;-80
2022/06/13 11:30:36;;;;;;;;;;;;;;;30.39;37.54;99536.82;1719568;82;20239;-80
2022/06/13 11:33:44;;;;;;;;;;;;;;;30.47;37.79;99535.44;1693380;83;20248;-80
2022/06/13 11:36:49;;;;;;;;;;;;;;;30.44;37.17;99532.44;1721142;82;20237;-80
2022/06/13 11:39:56;;;;;;;;;;;;;;;30.26;37.48;99531.57;1698620;83;20387;-80
2022/06/13 11:43:01;;;;;;;;;;;;;;;30.18;37.50;99529.54;1715955;83;20243;-80
2022/06/13 11:46:08;;;;;;;;;;;;;;;30.06;37.45;99527.28;1714244;83;20219;-80
2022/06/13 11:49:26;;;;;;;;;;;;;;;29.99;37.38;99529.75;1716332;83;20199;-80
2022/06/13 11:56:04;;;;;;;;;;;;;;;29.96;37.65;99519.12;1714867;83;20195;-80
2022/06/13 11:59:14;;;;;;;;;;;;;;;30.00;38.05;99508.86;1716430;83;20219;-80
2022/06/13 12:02:29;;;;;;;;;;;;;;;30.06;37.86;99507.55;1714753;82;20247;-80
2022/06/13 12:05:39;;;;;;;;;;;;;;;30.13;37.35;99507.95;1700231;83;20253;-79
2022/06/13 12:08:45;;;;;;;;;;;;;;;30.24;37.57;99509.31;1716341;83;20243;-79
2022/06/13 12:11:52;;;;;;;;;;;;;;;30.37;37.34;99505.30;1716871;83;20641;-79
2022/06/13 12:14:57;;;;;;;;;;;;;;;30.40;36.39;99500.42;1723549;83;20219;-80
2022/06/13 12:18:05;;;;;;;;;;;;;;;30.36;36.47;99496.01;1722695;83;20250;-79
2022/06/13 12:21:14;;;;;;;;;;;;;;;30.34;36.70;99489.02;1724160;83;20653;-79
2022/06/13 12:24:27;;;;;;;;;;;;;;;30.29;36.02;99486.59;1724037;83;20247;-79
2022/06/13 12:27:48;;;;;;;;;;;;;;;30.26;36.17;99485.86;1722794;83;20195;-79
2022/06/13 12:31:05;;;;;;;;;;;;;;;30.13;35.80;99473.26;1724374;83;20219;-79
2022/06/13 12:34:13;;;;;;;;;;;;;;;30.06;35.87;99479.36;1724213;83;20620;-79
2022/06/13 12:37:40;;;;;;;;;;;;;;;30.10;35.81;99474.73;1724201;83;20235;-80
2022/06/13 12:40:58;;;;;;;;;;;;;;;30.13;35.89;99478.34;1723605;83;20373;-79
2022/06/13 12:44:22;;;;;;;;;;;;;;;30.13;35.81;99469.89;1722571;83;20214;-79
2022/06/13 12:47:33;;;;;;;;;;;;;;;30.19;35.86;99466.33;1723143;83;20690;-79
2022/06/13 12:50:41;;;;;;;;;;;;;;;30.31;36.12;99462.31;1724257;83;20243;-79
2022/06/13 12:54:14;;;;;;;;;;;;;;;30.37;36.09;99472.86;1724183;83;20219;-79
2022/06/13 12:57:35;;;;;;;;;;;;;;;30.37;36.00;99478.50;1722544;83;20243;-80
2022/06/13 13:00:55;;;;;;;;;;;;;;;30.37;36.42;99474.27;1724168;83;20231;-79
2022/06/13 13:04:13;;;;;;;;;;;;;;;30.31;37.11;99480.65;1728017;82;20200;-80
2022/06/13 13:07:34;;;;;;;;;;;;;;;29.87;38.81;99483.84;1754090;82;20617;-79
2022/06/13 13:11:15;;;;;;;;;;;;;;;29.47;39.58;99471.09;1754463;82;20217;-80
2022/06/13 13:14:41;;;;;;;;;;;;;;;29.13;40.12;99470.29;1750608;81;20637;-79
2022/06/13 13:17:58;;;;;;;;;;;;;;;28.86;40.93;99466.14;1749436;82;20209;-79
2022/06/13 13:21:14;;;;;;;;;;;;;;;28.78;41.02;99458.70;1750408;82;20216;-79
2022/06/13 13:24:23;;;;;;;;;;;;;;;28.83;41.14;99458.32;1748751;82;20607;-79
2022/06/13 13:27:28;;;;;;;;;;;;;;;28.84;41.22;99457.99;1718649;82;20262;-80
2022/06/13 13:30:38;;;;;;;;;;;;;;;28.86;41.03;99463.33;1724062;83;20246;-79
2022/06/13 13:34:03;;;;;;;;;;;;;;;28.91;40.91;99470.23;1722075;83;20235;-79
2022/06/13 13:37:26;;;;;;;;;;;;;;;28.96;40.56;99456.07;1721998;83;20233;-79
2022/06/13 13:40:46;;;;;;;;;;;;;;;29.02;39.93;99448.58;1677022;85;20269;-79
2022/06/13 13:43:53;;;;;;;;;;;;;;;29.12;39.96;99455.10;1712391;84;20235;-80
2022/06/13 13:46:51;;;;;;;;;;;;;;;29.14;39.75;99445.78;1731175;83;20201;-80
2022/06/13 13:50:07;;;;;;;;;;;;;;;29.12;39.86;99442.43;1694386;85;20242;-80
2022/06/13 13:53:13;;;;;;;;;;;;;;;29.13;39.79;99444.95;1695166;85;20222;-80
2022/06/13 13:56:31;;;;;;;;;;;;;;;29.12;41.30;99447.48;1694266;85;20617;-80
2022/06/13 13:59:40;;;;;;;;;;;;;;;29.05;41.04;99442.06;1722163;83;20637;-80
2022/06/13 14:03:00;;;;;;;;;;;;;;;29.02;40.78;99446.34;1723465;83;20246;-80
2022/06/13 14:05:58;;;;;;;;;;;;;;;29.05;40.95;99447.11;1723557;83;20215;-80
2022/06/13 14:09:04;;;;;;;;;;;;;;;29.11;40.53;99452.86;1723950;83;20636;-80
2022/06/13 14:12:15;;;;;;;;;;;;;;;29.14;39.88;99445.20;1722538;83;20621;-80
2022/06/13 14:15:24;;;;;;;;;;;;;;;29.12;39.97;99443.84;1721873;83;20357;-80
2022/06/13 14:18:44;;;;;;;;;;;;;;;29.13;39.36;99442.71;1723489;83;20199;-80
2022/06/13 14:21:53;;;;;;;;;;;;;;;29.21;38.72;99441.92;1724087;83;20588;-80
2022/06/13 14:25:10;;;;;;;;;;;;;;;29.28;38.24;99434.69;1723765;83;20194;-80
2022/06/13 14:28:20;;;;;;;;;;;;;;;29.38;38.27;99438.39;1722621;83;20621;-80
2022/06/13 14:31:24;;;;;;;;;;;;;;;29.53;38.38;99437.98;1724179;83;20282;-80
2022/06/13 14:38:27;;;;;;;;;;;;;;;29.64;37.71;99438.00;1724099;83;20311;-80
2022/06/13 14:41:38;;;;;;;;;;;;;;;29.68;37.02;99440.39;1722153;83;20381;-80
2022/06/13 14:44:48;;;;;;;;;;;;;;;29.61;37.26;99437.23;1722926;83;20226;-80
2022/06/13 14:48:14;;;;;;;;;;;;;;;29.53;37.44;99441.62;1721718;83;20235;-81
2022/06/13 14:51:25;;;;;;;;;;;;;;;29.48;37.17;99447.97;1723164;83;20271;-81
2022/06/13 14:54:46;;;;;;;;;;;;;;;29.41;37.38;99446.20;1723607;83;20219;-81
2022/06/13 14:57:53;;;;;;;;;;;;;;;29.37;37.99;99450.82;1722663;83;20219;-80
2022/06/13 15:01:25;;;;;;;;;;;;;;;29.34;38.11;99454.27;1724094;83;20223;-80
2022/06/13 15:04:32;;;;;;;;;;;;;;;29.29;37.87;99449.02;1679669;83;20367;-80
2022/06/13 15:07:56;;;;;;;;;;;;;;;29.20;37.71;99451.52;1722951;83;20230;-80
2022/06/13 15:11:03;;;;;;;;;;;;;;;29.15;37.45;99444.04;1724241;83;20215;-80
2022/06/13 15:14:07;;;;;;;;;;;;;;;29.10;37.24;99441.94;1724218;83;20612;-80
2022/06/13 15:17:15;;;;;;;;;;;;;;;29.04;37.47;99444.05;1723240;83;20219;-80
2022/06/13 15:20:22;;;;;;;;;;;;;;;28.99;37.92;99444.18;1724176;83;20199;-80
2022/06/13 15:23:34;;;;;;;;;;;;;;;28.97;37.98;99449.28;1723831;83;20238;-80
2022/06/13 15:26:39;;;;;;;;;;;;;;;28.92;37.54;99449.38;1723602;83;20218;-80
2022/06/13 15:29:45;;;;;;;;;;;;;;;28.84;37.74;99457.99;1724250;83;20215;-80
2022/06/13 15:32:50;;;;;;;;;;;;;;;28.76;37.92;99454.55;1724086;83;20244;-80
2022/06/13 15:36:04;;;;;;;;;;;;;;;28.68;38.08;99456.12;1724043;83;20215;-80
2022/06/13 15:39:08;;;;;;;;;;;;;;;28.59;38.53;99452.98;1724074;83;20226;-79
2022/06/13 15:42:23;;;;;;;;;;;;;;;28.47;40.02;99454.38;1700181;83;20254;-80
2022/06/13 15:45:29;;;;;;;;;;;;;;;28.32;40.71;99452.42;1724241;83;20219;-80
2022/06/13 15:48:33;;;;;;;;;;;;;;;28.18;41.51;99449.08;1722613;83;20214;-80
2022/06/13 15:51:39;;;;;;;;;;;;;;;28.09;42.47;99450.95;1724040;83;20219;-80
2022/06/13 15:54:46;;;;;;;;;;;;;;;28.00;43.07;99455.64;1722592;83;20286;-79
2022/06/13 15:57:58;;;;;;;;;;;;;;;27.93;43.39;99461.66;1723145;83;20223;-80
2022/06/13 16:01:03;;;;;;;;;;;;;;;27.89;43.81;99468.22;1722526;83;20215;-80
2022/06/13 16:04:14;;;;;;;;;;;;;;;27.84;44.23;99468.31;1722755;83;20215;-80
2022/06/13 16:07:19;;;;;;;;;;;;;;;27.75;44.56;99475.22;1723556;83;20648;-80
2022/06/13 16:10:25;;;;;;;;;;;;;;;27.67;44.04;99475.94;1682899;83;20219;-80
2022/06/13 16:13:39;;;;;;;;;;;;;;;27.57;44.18;99467.67;1723944;83;20222;-80
2022/06/13 16:16:45;;;;;;;;;;;;;;;27.49;44.59;99462.22;1721691;83;20656;-80
2022/06/13 16:19:50;;;;;;;;;;;;;;;27.40;44.92;99473.89;1722659;83;20227;-80
2022/06/13 16:22:51;;;;;;;;;;;;;;;27.32;45.30;99473.19;1724126;83;20215;-80
2022/06/13 16:25:45;;;;;;;;;;;;;;;27.24;45.73;99475.57;1724264;83;20250;-80
2022/06/13 16:28:31;;;;;;;;;;;;;;;27.18;46.09;99474.54;1722993;83;20656;-80
2022/06/13 16:31:23;;;;;;;;;;;;;;;27.10;46.22;99469.61;1723828;83;20214;-80
2022/06/13 16:34:08;;;;;;;;;;;;;;;27.03;46.51;99470.56;1723707;83;20222;-80
2022/06/13 16:37:14;;;;;;;;;;;;;;;26.95;46.75;99474.87;1723654;83;20214;-80
2022/06/13 16:40:38;;;;;;;;;;;;;;;26.86;46.92;99476.70;1723303;83;20215;-81
2022/06/13 16:43:43;;;;;;;;;;;;;;;26.78;46.54;99483.86;1723881;83;20282;-80
2022/06/13 16:46:56;;;;;;;;;;;;;;;26.69;46.56;99487.91;1723783;83;20620;-80
2022/06/13 16:50:05;;;;;;;;;;;;;;;26.61;46.71;99496.98;1723620;83;20219;-80
2022/06/13 16:53:17;;;;;;;;;;;;;;;26.50;47.52;99493.50;1723857;83;20405;-80
2022/06/13 16:56:28;;;;;;;;;;;;;;;26.36;48.24;99501.52;1723990;83;20230;-80
2022/06/13 16:59:34;;;;;;;;;;;;;;;26.25;48.93;99500.25;1722337;83;20349;-81
2022/06/13 17:02:40;;;;;;;;;;;;;;;26.15;49.47;99500.35;1724911;83;20179;-81
2022/06/13 17:05:51;;;;;;;;;;;;;;;26.10;49.72;99502.39;1724717;83;20190;-80
2022/06/13 17:09:11;;;;;;;;;;;;;;;26.05;50.59;99508.89;1722785;83;20653;-80